createdAt,value
2022-10-22T00:00:17.436Z,1.20
2022-10-22T00:02:44.922Z,1.30
2022-10-22T00:05:12.013Z,1.87
2022-10-22T00:07:39.469Z,2.17
2022-10-22T00:10:07.938Z,2.97
2022-10-22T00:12:35.422Z,3.40
2022-10-22T00:15:03.759Z,4.17
2022-10-22T00:17:30.795Z,3.30
2022-10-22T00:19:57.985Z,4.27
2022-10-22T00:22:24.899Z,3.63
2022-10-22T00:24:51.925Z,4.43
2022-10-22T00:27:18.859Z,4.23
2022-10-22T00:29:45.990Z,4.60
2022-10-22T00:32:13.400Z,4.40
2022-10-22T00:34:40.409Z,4.73
2022-10-22T00:37:07.761Z,4.70
2022-10-22T00:39:34.742Z,5.00
2022-10-22T00:42:01.752Z,5.10
2022-10-22T00:45:09.453Z,4.93
2022-10-22T00:48:04.768Z,5.37
2022-10-22T00:50:59.751Z,5.20
2022-10-22T00:53:34.885Z,5.77
2022-10-22T00:56:02.382Z,5.73
2022-10-22T00:58:34.915Z,6.90
2022-10-22T01:01:02.567Z,6.23
2022-10-22T01:03:29.578Z,6.07
2022-10-22T01:06:00.242Z,5.23
2022-10-22T01:08:39.808Z,5.67
2022-10-22T01:11:29.920Z,5.17
2022-10-22T01:14:24.527Z,5.63
2022-10-22T01:17:25.092Z,5.93
2022-10-22T01:20:55.034Z,7.37
2022-10-22T01:24:05.775Z,6.77
2022-10-22T01:26:57.655Z,6.33
2022-10-22T01:29:41.216Z,6.30
2022-10-22T01:32:23.983Z,7.07
2022-10-22T01:34:56.371Z,6.27
2022-10-22T01:37:28.436Z,6.13
2022-10-22T01:39:59.717Z,5.93
2022-10-22T01:42:26.715Z,7.00
2022-10-22T01:44:53.789Z,7.07
2022-10-22T01:48:18.776Z,7.03
2022-10-22T01:51:13.177Z,5.87
2022-10-22T01:54:03.241Z,5.90
2022-10-22T01:56:41.135Z,6.70
2022-10-22T02:00:00.027Z,6.90
2022-10-22T02:03:10.131Z,6.50
2022-10-22T02:05:51.874Z,6.07
2022-10-22T02:08:29.465Z,5.50
2022-10-22T02:10:58.614Z,7.90
2022-10-22T02:13:53.846Z,6.60
2022-10-22T02:16:44.120Z,6.57
2022-10-22T02:19:16.004Z,7.00
2022-10-22T02:21:44.112Z,6.40
2022-10-22T02:24:11.251Z,7.50
2022-10-22T02:26:46.246Z,9.27
2022-10-22T02:29:28.010Z,8.20
2022-10-22T02:31:58.903Z,7.70
2022-10-22T02:34:31.274Z,7.87
2022-10-22T02:37:02.130Z,7.43
2022-10-22T02:39:31.358Z,7.87
2022-10-22T02:41:58.808Z,7.43
2022-10-22T02:44:25.726Z,8.93
2022-10-22T02:46:53.053Z,9.17
2022-10-22T02:49:20.197Z,8.10
2022-10-22T02:51:47.174Z,8.87
2022-10-22T02:54:14.829Z,7.87
2022-10-22T02:56:41.938Z,8.53
2022-10-22T02:59:09.196Z,7.40
2022-10-22T03:01:36.167Z,8.63
2022-10-22T03:04:03.659Z,7.87
2022-10-22T03:06:31.467Z,9.23
2022-10-22T03:08:58.513Z,8.47
2022-10-22T03:11:25.644Z,9.50
2022-10-22T03:13:52.880Z,8.27
2022-10-22T03:16:19.844Z,8.73
2022-10-22T03:18:47.110Z,9.30
2022-10-22T03:21:42.786Z,8.60
2022-10-22T03:24:20.118Z,7.87
2022-10-22T03:26:49.403Z,8.97
2022-10-22T03:29:17.090Z,9.43
2022-10-22T03:31:44.080Z,7.57
2022-10-22T03:34:13.402Z,8.70
2022-10-22T03:36:41.635Z,7.60
2022-10-22T03:39:09.616Z,9.70
2022-10-22T03:41:37.003Z,8.77
2022-10-22T03:44:05.522Z,8.47
2022-10-22T03:46:32.587Z,7.70
2022-10-22T03:48:59.912Z,8.50
2022-10-22T03:51:28.169Z,6.97
2022-10-22T03:53:55.874Z,8.03
2022-10-22T03:56:23.228Z,7.90
2022-10-22T03:58:50.240Z,6.73
2022-10-22T04:01:17.454Z,6.83
2022-10-22T04:03:44.567Z,6.00
2022-10-22T04:06:13.503Z,7.83
2022-10-22T04:08:43.091Z,6.73
2022-10-22T04:11:11.598Z,9.00
2022-10-22T04:13:39.252Z,7.47
2022-10-22T04:16:11.054Z,7.47
2022-10-22T04:18:38.750Z,9.83
2022-10-22T04:21:07.527Z,9.83
2022-10-22T04:23:34.682Z,8.63
2022-10-22T04:26:05.807Z,9.70
2022-10-22T04:28:34.849Z,10.17
2022-10-22T04:31:09.590Z,11.20
2022-10-22T04:33:36.884Z,8.10
2022-10-22T04:36:16.723Z,9.40
2022-10-22T04:38:46.890Z,10.33
2022-10-22T04:41:25.576Z,8.90
2022-10-22T04:43:54.791Z,9.17
2022-10-22T04:46:22.913Z,8.30
2022-10-22T04:48:52.185Z,9.57
2022-10-22T04:51:21.592Z,10.60
2022-10-22T04:53:49.154Z,9.63
2022-10-22T04:56:26.710Z,10.53
2022-10-22T04:59:04.197Z,11.63
2022-10-22T05:01:40.170Z,11.27
2022-10-22T05:04:23.582Z,9.47
2022-10-22T05:06:50.891Z,9.97
2022-10-22T05:09:20.563Z,10.70
2022-10-22T05:11:50.352Z,8.73
2022-10-22T05:14:22.380Z,10.03
2022-10-22T05:16:51.312Z,10.00
2022-10-22T05:19:24.130Z,10.17
2022-10-22T05:21:53.964Z,9.53
2022-10-22T05:24:21.598Z,10.37
2022-10-22T05:26:53.682Z,10.20
2022-10-22T05:29:21.881Z,10.30
2022-10-22T05:31:49.550Z,11.30
2022-10-22T05:34:17.079Z,10.97
2022-10-22T05:36:44.492Z,11.90
2022-10-22T05:39:12.180Z,12.33
2022-10-22T05:41:39.193Z,10.30
2022-10-22T05:44:06.392Z,11.90
2022-10-22T05:46:36.429Z,12.07
2022-10-22T05:49:06.777Z,12.00
2022-10-22T05:51:36.887Z,12.13
2022-10-22T05:54:07.992Z,11.63
2022-10-22T05:56:37.585Z,10.60
2022-10-22T05:59:04.808Z,9.50
2022-10-22T06:01:35.627Z,11.77
2022-10-22T06:04:06.570Z,10.40
2022-10-22T06:06:40.854Z,10.70
2022-10-22T06:09:34.500Z,11.30
2022-10-22T06:12:01.960Z,11.60
2022-10-22T06:14:29.395Z,11.73
2022-10-22T06:16:59.513Z,11.60
2022-10-22T06:19:27.135Z,10.73
2022-10-22T06:21:54.349Z,10.80
2022-10-22T06:24:21.685Z,12.73
2022-10-22T06:26:52.698Z,11.30
2022-10-22T06:29:19.848Z,10.27
2022-10-22T06:31:47.976Z,11.00
2022-10-22T06:34:18.808Z,10.80
2022-10-22T06:36:46.841Z,10.47
2022-10-22T06:39:17.010Z,10.60
2022-10-22T06:41:44.187Z,11.30
2022-10-22T06:44:16.053Z,9.93
2022-10-22T06:46:43.654Z,10.60
2022-10-22T06:49:17.131Z,10.83
2022-10-22T06:51:44.888Z,10.17
2022-10-22T06:54:12.467Z,11.27
2022-10-22T06:56:39.453Z,11.67
2022-10-22T06:59:06.704Z,10.50
2022-10-22T07:01:35.434Z,11.83
2022-10-22T07:04:03.869Z,12.53
2022-10-22T07:06:31.682Z,13.00
2022-10-22T07:09:00.529Z,12.73
2022-10-22T07:11:42.105Z,12.93
2022-10-22T07:14:09.973Z,10.93
2022-10-22T07:16:38.020Z,12.07
2022-10-22T07:19:05.837Z,13.10
2022-10-22T07:21:33.112Z,10.70
2022-10-22T07:24:00.266Z,9.80
2022-10-22T07:26:30.883Z,8.70
2022-10-22T07:29:00.425Z,8.30
2022-10-22T07:31:28.321Z,6.50
2022-10-22T07:33:55.601Z,7.10
2022-10-22T07:36:22.543Z,6.63
2022-10-22T07:38:56.829Z,7.13
2022-10-22T07:41:24.817Z,5.73
2022-10-22T07:43:51.925Z,6.17
2022-10-22T07:46:20.462Z,4.53
2022-10-22T07:48:47.724Z,4.97
2022-10-22T07:51:15.794Z,3.83
2022-10-22T07:53:43.330Z,6.70
2022-10-22T07:56:10.801Z,5.17
2022-10-22T07:58:38.079Z,4.37
2022-10-22T08:01:08.125Z,3.63
2022-10-22T08:03:35.670Z,1.93
2022-10-22T08:06:03.667Z,2.37
2022-10-22T08:08:30.954Z,3.90
2022-10-22T08:11:00.690Z,2.97
2022-10-22T08:13:30.738Z,2.40
2022-10-22T08:16:00.368Z,2.50
2022-10-22T08:18:28.551Z,2.53
2022-10-22T08:20:56.168Z,2.70
2022-10-22T08:23:26.087Z,2.77
2022-10-22T08:25:57.240Z,2.00
2022-10-22T08:28:24.541Z,1.90
2022-10-22T08:30:51.674Z,2.23
2022-10-22T08:33:18.624Z,2.60
2022-10-22T08:35:52.626Z,2.20
2022-10-22T08:38:20.526Z,2.10
2022-10-22T08:41:14.623Z,1.97
2022-10-22T08:44:02.605Z,1.73
2022-10-22T08:46:35.171Z,1.50
2022-10-22T08:51:41.390Z,1.50
2022-10-22T08:54:47.306Z,1.30
2022-10-22T08:57:39.543Z,1.87
2022-10-22T09:00:31.181Z,1.20
2022-10-22T09:03:09.751Z,1.30
2022-10-22T09:05:55.796Z,1.30
2022-10-22T09:08:23.846Z,1.07
2022-10-22T09:11:13.395Z,1.20
2022-10-22T09:13:43.313Z,1.33
2022-10-22T09:16:36.254Z,1.10
2022-10-22T09:19:06.310Z,1.20
2022-10-22T09:21:54.398Z,1.03
2022-10-22T09:24:39.311Z,0.97
2022-10-22T09:27:21.112Z,0.87
2022-10-22T09:29:48.794Z,1.30
2022-10-22T09:32:17.426Z,1.23
2022-10-22T09:34:46.702Z,0.80
2022-10-22T09:37:19.286Z,1.17
2022-10-22T09:39:52.966Z,1.37
2022-10-22T09:42:22.170Z,0.97
2022-10-22T09:44:55.334Z,0.90
2022-10-22T09:48:00.636Z,1.00
2022-10-22T09:50:45.967Z,1.30
2022-10-22T09:53:28.781Z,1.20
2022-10-22T09:56:00.494Z,1.00
2022-10-22T09:58:28.163Z,1.87
2022-10-22T10:01:00.526Z,1.10
2022-10-22T10:03:31.513Z,1.17
2022-10-22T10:06:04.757Z,1.27
2022-10-22T10:08:33.893Z,1.47
2022-10-22T10:11:29.240Z,1.20
2022-10-22T10:14:34.416Z,1.30
2022-10-22T10:18:10.565Z,1.60
2022-10-22T10:20:54.863Z,1.10
2022-10-22T10:23:55.035Z,0.93
2022-10-22T10:26:54.920Z,1.30
2022-10-22T10:29:48.843Z,1.03
2022-10-22T10:32:51.015Z,1.27
2022-10-22T10:36:03.412Z,1.37
2022-10-22T10:38:41.041Z,1.10
2022-10-22T10:41:26.979Z,1.10
2022-10-22T10:44:24.254Z,1.17
2022-10-22T10:47:31.619Z,1.03
2022-10-22T10:50:35.573Z,1.93
2022-10-22T10:53:24.267Z,1.57
2022-10-22T10:56:13.613Z,1.17
2022-10-22T10:59:17.183Z,1.20
2022-10-22T11:02:27.866Z,1.20
2022-10-22T11:05:28.147Z,1.40
2022-10-22T11:08:17.355Z,1.17
2022-10-22T11:10:50.367Z,1.20
2022-10-22T11:13:31.563Z,0.83
2022-10-22T11:16:15.074Z,1.33
2022-10-22T11:19:22.531Z,1.10
2022-10-22T11:22:26.776Z,1.20
2022-10-22T11:25:13.248Z,1.20
2022-10-22T11:27:53.610Z,1.37
2022-10-22T11:30:28.613Z,1.17
2022-10-22T11:33:01.786Z,1.10
2022-10-22T11:35:34.924Z,1.00
2022-10-22T11:38:05.460Z,1.40
2022-10-22T11:40:39.486Z,1.00
2022-10-22T11:43:25.766Z,0.93
2022-10-22T11:46:23.229Z,1.60
2022-10-22T11:49:19.603Z,0.90
2022-10-22T11:51:47.640Z,1.00
2022-10-22T11:54:44.410Z,0.90
2022-10-22T11:57:19.633Z,1.10
2022-10-22T12:00:01.399Z,1.20
2022-10-22T12:02:28.280Z,0.73
2022-10-22T12:05:23.335Z,1.20
2022-10-22T12:07:55.066Z,0.90
2022-10-22T12:10:29.426Z,1.60
2022-10-22T12:13:11.059Z,1.13
2022-10-22T12:15:53.294Z,1.30
2022-10-22T12:18:27.686Z,1.13
2022-10-22T12:20:55.269Z,1.10
2022-10-22T12:23:31.695Z,1.07
2022-10-22T12:25:58.730Z,1.00
2022-10-22T12:28:26.027Z,0.70
2022-10-22T12:30:52.977Z,0.80
2022-10-22T12:33:23.286Z,1.20
2022-10-22T12:35:54.068Z,1.67
2022-10-22T12:38:24.372Z,1.93
2022-10-22T12:40:55.038Z,1.30
2022-10-22T12:43:30.075Z,1.50
2022-10-22T12:45:59.112Z,0.83
2022-10-22T12:48:34.462Z,1.00
2022-10-22T12:51:04.725Z,1.23
2022-10-22T12:53:44.266Z,0.97
2022-10-22T12:56:16.180Z,1.73
2022-10-22T12:59:06.867Z,0.80
2022-10-22T13:01:40.010Z,1.17
2022-10-22T13:04:16.897Z,0.93
2022-10-22T13:06:50.173Z,0.90
2022-10-22T13:09:27.477Z,0.80
2022-10-22T13:12:04.895Z,0.70
2022-10-22T13:14:38.237Z,0.83
2022-10-22T13:17:39.052Z,1.17
2022-10-22T13:20:26.546Z,1.00
2022-10-22T13:23:00.544Z,0.70
2022-10-22T13:25:34.902Z,0.70
2022-10-22T13:28:25.229Z,0.73
2022-10-22T13:31:19.926Z,0.93
2022-10-22T13:33:55.071Z,1.43
2022-10-22T13:36:23.634Z,0.93
2022-10-22T13:38:51.321Z,0.93
2022-10-22T13:41:27.287Z,0.60
2022-10-22T13:43:55.229Z,1.47
2022-10-22T13:46:24.242Z,0.80
2022-10-22T13:48:55.276Z,1.10
2022-10-22T13:51:27.867Z,0.80
2022-10-22T13:53:54.874Z,0.80
2022-10-22T13:56:22.721Z,0.80
2022-10-22T13:58:49.830Z,1.00
2022-10-22T14:01:26.969Z,0.97
2022-10-22T14:04:01.941Z,0.80
2022-10-22T14:06:32.071Z,0.93
2022-10-22T14:09:06.313Z,0.77
2022-10-22T14:11:35.400Z,1.13
2022-10-22T14:14:04.970Z,0.80
2022-10-22T14:16:33.302Z,0.83
2022-10-22T14:19:02.475Z,0.80
2022-10-22T14:21:37.537Z,0.80
2022-10-22T14:24:07.090Z,1.13
2022-10-22T14:26:36.639Z,0.70
2022-10-22T14:29:09.301Z,1.00
2022-10-22T14:31:43.410Z,0.73
2022-10-22T14:34:13.855Z,0.77
2022-10-22T14:36:43.746Z,0.70
2022-10-22T14:39:11.919Z,0.67
2022-10-22T14:41:39.524Z,1.17
2022-10-22T14:44:06.549Z,1.00
2022-10-22T14:46:33.995Z,0.70
2022-10-22T14:49:00.958Z,1.00
2022-10-22T14:51:28.187Z,1.30
2022-10-22T14:53:55.155Z,0.93
2022-10-22T14:56:22.136Z,0.77
2022-10-22T14:58:50.533Z,0.80
2022-10-22T15:01:17.800Z,0.83
2022-10-22T15:03:45.057Z,0.90
2022-10-22T15:06:12.094Z,0.80
2022-10-22T15:08:39.654Z,1.00
2022-10-22T15:11:11.308Z,1.13
2022-10-22T15:13:39.291Z,1.17
2022-10-22T15:16:08.672Z,0.90
2022-10-22T15:18:36.468Z,0.93
2022-10-22T15:21:16.926Z,0.80
2022-10-22T15:23:43.941Z,0.80
2022-10-22T15:26:13.328Z,0.90
2022-10-22T15:28:41.729Z,0.60
2022-10-22T15:31:13.386Z,0.90
2022-10-22T15:33:42.746Z,0.80
2022-10-22T15:36:16.147Z,0.67
2022-10-22T15:38:43.200Z,0.73
2022-10-22T15:41:12.782Z,0.80
2022-10-22T15:43:39.744Z,1.17
2022-10-22T15:46:17.482Z,0.80
2022-10-22T15:48:45.721Z,0.90
2022-10-22T15:51:16.670Z,0.90
2022-10-22T15:53:44.391Z,1.20
2022-10-22T15:56:12.089Z,1.10
2022-10-22T15:58:39.875Z,0.83
2022-10-22T16:01:11.702Z,0.80
2022-10-22T16:03:40.133Z,0.63
2022-10-22T16:06:09.397Z,1.27
2022-10-22T16:08:37.735Z,1.10
2022-10-22T16:11:05.583Z,1.20
2022-10-22T16:13:32.627Z,1.67
2022-10-22T16:16:04.168Z,1.97
2022-10-22T16:18:31.447Z,1.87
2022-10-22T16:20:59.109Z,1.87
2022-10-22T16:23:26.133Z,1.67
2022-10-22T16:25:53.198Z,2.17
2022-10-22T16:28:20.463Z,1.50
2022-10-22T16:30:47.438Z,2.00
2022-10-22T16:33:14.611Z,2.20
2022-10-22T16:35:42.739Z,2.07
2022-10-22T16:38:11.212Z,2.13
2022-10-22T16:40:38.477Z,1.80
2022-10-22T16:43:06.255Z,1.60
2022-10-22T16:45:33.336Z,1.77
2022-10-22T16:48:00.781Z,1.40
2022-10-22T16:50:27.980Z,1.80
2022-10-22T16:52:55.043Z,1.60
2022-10-22T16:55:22.236Z,1.90
2022-10-22T16:57:53.716Z,2.27
2022-10-22T17:00:21.610Z,1.77
2022-10-22T17:02:55.463Z,1.90
2022-10-22T17:05:23.494Z,2.77
2022-10-22T17:07:50.961Z,2.27
2022-10-22T17:12:54.281Z,2.70
2022-10-22T17:15:21.246Z,2.80
2022-10-22T17:17:52.489Z,3.40
2022-10-22T17:20:20.263Z,2.73
2022-10-22T17:22:49.592Z,2.57
2022-10-22T17:25:32.648Z,2.73
2022-10-22T17:27:59.783Z,3.10
2022-10-22T17:30:28.368Z,2.90
2022-10-22T17:32:55.741Z,3.20
2022-10-22T17:35:22.963Z,2.70
2022-10-22T17:37:50.052Z,1.83
2022-10-22T17:40:17.038Z,2.50
2022-10-22T17:42:45.634Z,2.80
2022-10-22T17:45:12.597Z,2.50
2022-10-22T17:47:40.095Z,2.43
2022-10-22T17:50:08.183Z,2.33
2022-10-22T17:52:35.801Z,1.90
2022-10-22T17:55:03.560Z,2.83
2022-10-22T17:57:30.598Z,1.67
2022-10-22T17:59:57.645Z,1.30
2022-10-22T18:02:24.833Z,1.20
2022-10-22T18:04:52.599Z,1.53
2022-10-22T18:07:20.781Z,1.77
2022-10-22T18:09:48.150Z,1.20
2022-10-22T18:12:18.070Z,1.27
2022-10-22T18:14:46.986Z,1.10
2022-10-22T18:19:47.727Z,1.47
2022-10-22T18:22:14.815Z,2.20
2022-10-22T18:24:41.802Z,2.90
2022-10-22T18:27:08.997Z,2.90
2022-10-22T18:29:36.935Z,2.23
2022-10-22T18:32:09.416Z,2.57
2022-10-22T18:34:39.297Z,1.67
2022-10-22T18:37:06.475Z,1.80
2022-10-22T18:39:34.381Z,2.10
2022-10-22T18:42:06.364Z,1.60
2022-10-22T18:44:34.842Z,1.80
2022-10-22T18:47:02.234Z,1.97
2022-10-22T18:49:29.254Z,1.90
2022-10-22T18:51:56.199Z,2.30
2022-10-22T18:54:24.367Z,2.00
2022-10-22T18:56:53.330Z,1.63
2022-10-22T18:59:26.292Z,2.20
2022-10-22T19:01:55.438Z,2.40
2022-10-22T19:04:22.647Z,1.90
2022-10-22T19:06:50.146Z,2.00
2022-10-22T19:09:17.527Z,2.60
2022-10-22T19:11:45.675Z,4.03
2022-10-22T19:14:14.789Z,2.80
2022-10-22T19:16:41.928Z,2.60
2022-10-22T19:19:09.051Z,2.67
2022-10-22T19:21:38.117Z,2.30
2022-10-22T19:24:06.016Z,2.80
2022-10-22T19:26:33.074Z,2.20
2022-10-22T19:29:01.031Z,2.70
2022-10-22T19:31:32.445Z,2.67
2022-10-22T19:34:02.024Z,2.40
2022-10-22T19:36:32.473Z,2.97
2022-10-22T19:38:59.941Z,3.40
2022-10-22T19:41:29.246Z,3.47
2022-10-22T19:43:57.994Z,3.20
2022-10-22T19:46:26.947Z,3.20
2022-10-22T19:48:57.033Z,2.80
2022-10-22T19:51:29.686Z,3.10
2022-10-22T19:54:06.047Z,3.47
2022-10-22T19:56:35.835Z,3.00
2022-10-22T19:59:04.702Z,3.57
2022-10-22T20:01:32.008Z,3.17
2022-10-22T20:04:00.249Z,3.03
2022-10-22T20:06:27.554Z,3.17
2022-10-22T20:08:56.187Z,3.27
2022-10-22T20:11:28.304Z,3.40
2022-10-22T20:13:57.049Z,3.50
2022-10-22T20:16:28.530Z,2.63
2022-10-22T20:19:00.455Z,3.70
2022-10-22T20:21:27.499Z,3.40
2022-10-22T20:23:56.381Z,3.83
2022-10-22T20:26:24.575Z,3.40
2022-10-22T20:28:52.282Z,4.00
2022-10-22T20:31:21.757Z,3.00
2022-10-22T20:33:50.946Z,4.10
2022-10-22T20:36:21.855Z,3.63
2022-10-22T20:38:50.862Z,4.50
2022-10-22T20:41:21.573Z,4.13
2022-10-22T20:43:51.056Z,3.60
2022-10-22T20:46:24.619Z,3.90
2022-10-22T20:48:54.752Z,4.00
2022-10-22T20:51:22.334Z,4.10
2022-10-22T20:53:50.333Z,3.43
2022-10-22T20:56:18.187Z,4.20
2022-10-22T20:58:49.107Z,3.63
2022-10-22T21:01:24.428Z,3.90
2022-10-22T21:03:52.801Z,4.07
2022-10-22T21:06:23.007Z,5.03
2022-10-22T21:08:51.299Z,3.77
2022-10-22T21:11:19.609Z,4.87
2022-10-22T21:13:47.285Z,4.50
2022-10-22T21:16:17.607Z,3.63
2022-10-22T21:18:46.455Z,4.03
2022-10-22T21:21:14.303Z,3.77
2022-10-22T21:23:41.349Z,4.50
2022-10-22T21:26:08.697Z,4.40
2022-10-22T21:28:36.878Z,4.67
2022-10-22T21:31:07.364Z,4.20
2022-10-22T21:33:39.289Z,4.70
2022-10-22T21:36:09.226Z,4.97
2022-10-22T21:38:37.752Z,3.90
2022-10-22T21:41:07.535Z,3.97
2022-10-22T21:43:36.881Z,4.10
2022-10-22T21:46:16.463Z,4.30
2022-10-22T21:48:44.219Z,4.70
2022-10-22T21:51:15.982Z,4.33
2022-10-22T21:53:43.798Z,3.10
2022-10-22T21:56:21.011Z,3.80
2022-10-22T21:58:48.514Z,4.03
2022-10-22T22:01:16.874Z,3.97
2022-10-22T22:03:49.163Z,3.67
2022-10-22T22:06:21.244Z,3.80
2022-10-22T22:08:51.304Z,3.80
2022-10-22T22:11:25.027Z,3.80
2022-10-22T22:13:53.685Z,3.43
2022-10-22T22:16:27.286Z,3.13
2022-10-22T22:19:01.653Z,3.07
2022-10-22T22:21:29.734Z,3.50
2022-10-22T22:23:58.215Z,2.80
2022-10-22T22:26:29.916Z,2.83
2022-10-22T22:28:59.417Z,3.00
2022-10-22T22:31:31.111Z,2.70
2022-10-22T22:34:08.219Z,2.50
2022-10-22T22:36:42.011Z,2.07
2022-10-22T22:39:13.903Z,2.70
2022-10-22T22:41:42.439Z,2.30
2022-10-22T22:44:09.930Z,2.60
2022-10-22T22:46:37.416Z,3.00
2022-10-22T22:49:05.450Z,2.57
2022-10-22T22:51:33.260Z,2.13
2022-10-22T22:54:01.128Z,2.27
2022-10-22T22:56:31.732Z,2.60
2022-10-22T22:58:59.186Z,2.70
2022-10-22T23:01:33.871Z,2.60
2022-10-22T23:04:19.377Z,2.40
2022-10-22T23:06:46.632Z,2.30
2022-10-22T23:09:16.619Z,2.43
2022-10-22T23:11:45.498Z,2.57
2022-10-22T23:14:15.942Z,1.90
2022-10-22T23:16:47.653Z,2.30
2022-10-22T23:19:18.950Z,2.13
2022-10-22T23:21:53.786Z,1.87
2022-10-22T23:24:25.266Z,2.70
2022-10-22T23:26:54.733Z,2.20
2022-10-22T23:29:27.962Z,2.23
2022-10-22T23:31:58.533Z,2.07
2022-10-22T23:34:26.046Z,2.57
2022-10-22T23:36:54.531Z,1.90
2022-10-22T23:39:27.005Z,1.93
2022-10-22T23:41:54.579Z,1.83
2022-10-22T23:44:23.240Z,2.00
2022-10-22T23:46:51.089Z,1.83
2022-10-22T23:49:18.569Z,2.23
2022-10-22T23:51:45.775Z,2.10
2022-10-22T23:54:15.680Z,2.17
2022-10-22T23:56:42.686Z,2.03
2022-10-22T23:59:10.238Z,1.80
